Time;durP1;ratioP1;P1;durP2;ratioP2;P2;SDS_P1;SDS_P2;PMS_P1;PMS_P2;Temp;Humidity;BMP_temperature;BMP_pressure;BME280_temperature;BME280_humidity;BME280_pressure;Samples;Min_cycle;Max_cycle;Signal;HPM_P1;HPM_P2
2021/09/16 00:00:32;;;;;;;4.60;3.03;;;;;;;;;;5087522;28;20580;-47
2021/09/16 00:02:58;;;;;;;3.28;2.90;;;;;;;;;;5096141;28;20314;-47
2021/09/16 00:05:24;;;;;;;3.00;2.53;;;;;;;;;;5082835;28;20512;-47
2021/09/16 00:07:50;;;;;;;4.05;2.70;;;;;;;;;;5091045;28;20188;-47
2021/09/16 00:10:16;;;;;;;5.18;3.08;;;;;;;;;;5091685;28;20419;-47
2021/09/16 00:12:42;;;;;;;3.35;3.00;;;;;;;;;;5075746;28;20731;-47
2021/09/16 00:15:09;;;;;;;4.43;2.95;;;;;;;;;;5092916;28;20189;-47
2021/09/16 00:17:35;;;;;;;4.55;2.85;;;;;;;;;;5094739;28;20192;-47
2021/09/16 00:20:01;;;;;;;3.90;2.88;;;;;;;;;;5093660;28;20508;-47
2021/09/16 00:22:27;;;;;;;2.75;2.40;;;;;;;;;;5074517;28;20186;-47
2021/09/16 00:24:53;;;;;;;5.05;2.95;;;;;;;;;;5075258;28;20690;-47
2021/09/16 00:27:19;;;;;;;4.97;3.30;;;;;;;;;;5074792;28;20171;-47
2021/09/16 00:29:45;;;;;;;2.92;2.63;;;;;;;;;;5077636;28;20177;-47
2021/09/16 00:32:11;;;;;;;5.38;2.88;;;;;;;;;;5083148;28;20204;-47
2021/09/16 00:34:37;;;;;;;3.97;2.72;;;;;;;;;;5095320;28;20257;-47
2021/09/16 00:37:03;;;;;;;3.30;3.00;;;;;;;;;;5095543;28;20557;-47
2021/09/16 00:39:29;;;;;;;4.07;3.22;;;;;;;;;;5109696;28;20178;-47
2021/09/16 00:41:55;;;;;;;3.30;2.75;;;;;;;;;;5077766;28;20209;-47
2021/09/16 00:44:21;;;;;;;3.83;3.13;;;;;;;;;;5075877;28;20277;-47
2021/09/16 00:46:47;;;;;;;3.75;2.80;;;;;;;;;;5090851;28;20174;-47
2021/09/16 00:49:13;;;;;;;4.43;3.33;;;;;;;;;;5082399;28;20235;-47
2021/09/16 00:51:40;;;;;;;4.88;2.70;;;;;;;;;;5080260;28;20556;-47
2021/09/16 00:54:08;;;;;;;3.35;2.97;;;;;;;;;;5075070;28;20190;-47
2021/09/16 00:56:35;;;;;;;4.68;3.20;;;;;;;;;;5092492;28;20215;-47
2021/09/16 00:59:02;;;;;;;4.45;3.33;;;;;;;;;;5093417;28;20230;-47
2021/09/16 01:01:30;;;;;;;3.58;3.03;;;;;;;;;;5080837;28;20213;-47
2021/09/16 01:03:56;;;;;;;3.67;2.97;;;;;;;;;;5074610;28;20201;-47
2021/09/16 01:06:23;;;;;;;3.10;2.80;;;;;;;;;;5090855;28;20177;-47
2021/09/16 01:08:49;;;;;;;4.05;3.40;;;;;;;;;;5094012;28;20201;-47
2021/09/16 01:11:15;;;;;;;3.78;3.05;;;;;;;;;;5092158;28;20251;-47
2021/09/16 01:13:42;;;;;;;4.07;3.13;;;;;;;;;;5088064;28;20169;-47
2021/09/16 01:16:08;;;;;;;4.50;3.50;;;;;;;;;;5094659;28;20253;-47
2021/09/16 01:18:34;;;;;;;4.03;3.08;;;;;;;;;;5094118;28;20179;-47
2021/09/16 01:21:00;;;;;;;3.25;2.95;;;;;;;;;;5094291;28;20184;-47
2021/09/16 01:23:26;;;;;;;3.45;3.15;;;;;;;;;;5088608;28;20721;-47
2021/09/16 01:25:52;;;;;;;4.07;3.33;;;;;;;;;;5081613;28;20277;-47
2021/09/16 01:28:18;;;;;;;5.90;3.00;;;;;;;;;;5073589;28;20162;-47
2021/09/16 01:30:45;;;;;;;3.50;3.05;;;;;;;;;;5085141;28;20188;-47
2021/09/16 01:33:11;;;;;;;3.72;3.10;;;;;;;;;;5094158;28;20582;-47
2021/09/16 01:35:38;;;;;;;6.00;3.10;;;;;;;;;;5092524;28;20460;-47
2021/09/16 01:38:04;;;;;;;4.63;3.65;;;;;;;;;;5099286;28;20454;-47
2021/09/16 01:40:30;;;;;;;3.78;3.25;;;;;;;;;;5097256;28;20541;-47
2021/09/16 01:42:56;;;;;;;5.13;3.47;;;;;;;;;;5093904;28;20197;-47
2021/09/16 01:45:23;;;;;;;6.15;3.05;;;;;;;;;;5085692;28;20178;-47
2021/09/16 01:47:50;;;;;;;3.60;2.92;;;;;;;;;;5092519;28;20198;-47
2021/09/16 01:50:18;;;;;;;5.20;2.90;;;;;;;;;;5074037;28;20174;-47
2021/09/16 01:52:44;;;;;;;3.78;3.47;;;;;;;;;;5074294;28;20174;-47
2021/09/16 01:55:10;;;;;;;4.88;3.10;;;;;;;;;;5081118;28;20176;-47
2021/09/16 01:57:36;;;;;;;3.00;2.70;;;;;;;;;;5092126;28;20217;-47
2021/09/16 02:00:03;;;;;;;6.75;3.50;;;;;;;;;;5093971;28;20181;-47
2021/09/16 02:02:29;;;;;;;3.97;3.47;;;;;;;;;;5093782;28;20197;-47
2021/09/16 02:04:55;;;;;;;3.47;3.17;;;;;;;;;;5085796;28;20189;-47
2021/09/16 02:07:21;;;;;;;5.97;3.65;;;;;;;;;;5083327;28;20181;-47
2021/09/16 02:09:47;;;;;;;4.25;3.60;;;;;;;;;;5092412;28;20185;-46
2021/09/16 02:12:13;;;;;;;4.07;3.15;;;;;;;;;;5077968;28;20182;-47
2021/09/16 02:14:39;;;;;;;4.20;3.30;;;;;;;;;;5091346;28;20549;-46
2021/09/16 02:17:05;;;;;;;8.25;3.97;;;;;;;;;;5096955;28;20249;-46
2021/09/16 02:19:31;;;;;;;4.95;3.80;;;;;;;;;;5091831;28;20205;-46
2021/09/16 02:21:57;;;;;;;4.47;3.47;;;;;;;;;;5078024;28;20504;-46
2021/09/16 02:24:23;;;;;;;3.92;3.53;;;;;;;;;;5082408;28;20206;-47
2021/09/16 02:26:49;;;;;;;6.30;3.90;;;;;;;;;;5090371;28;20478;-47
2021/09/16 02:29:15;;;;;;;4.57;3.53;;;;;;;;;;5097000;28;20557;-47
2021/09/16 02:31:41;;;;;;;3.60;3.30;;;;;;;;;;5091065;28;20189;-47
2021/09/16 02:34:07;;;;;;;7.03;3.08;;;;;;;;;;5097740;28;20230;-47
2021/09/16 02:36:33;;;;;;;3.35;3.05;;;;;;;;;;5096398;28;20182;-47
2021/09/16 02:38:59;;;;;;;4.55;3.13;;;;;;;;;;5112352;28;20288;-47
2021/09/16 02:41:27;;;;;;;4.57;3.70;;;;;;;;;;5078069;28;20231;-47
2021/09/16 02:43:53;;;;;;;4.32;3.33;;;;;;;;;;5077176;28;20233;-47
2021/09/16 02:46:19;;;;;;;4.53;3.10;;;;;;;;;;5083997;28;20209;-47
2021/09/16 02:48:45;;;;;;;3.10;2.80;;;;;;;;;;5096660;28;20215;-47
2021/09/16 02:51:11;;;;;;;6.05;3.28;;;;;;;;;;5088230;28;20594;-47
2021/09/16 02:53:37;;;;;;;4.13;2.75;;;;;;;;;;5097285;28;20174;-46
2021/09/16 02:56:03;;;;;;;3.50;2.88;;;;;;;;;;5095751;28;20256;-47
2021/09/16 02:58:29;;;;;;;3.30;3.00;;;;;;;;;;5079992;28;20177;-47
2021/09/16 03:00:55;;;;;;;2.72;2.50;;;;;;;;;;5084026;28;20213;-47
2021/09/16 03:03:21;;;;;;;3.88;2.40;;;;;;;;;;5076889;28;20213;-47
2021/09/16 03:05:47;;;;;;;4.38;2.90;;;;;;;;;;5086442;28;20162;-47
2021/09/16 03:08:13;;;;;;;3.80;2.92;;;;;;;;;;5084931;28;20565;-47
2021/09/16 03:10:40;;;;;;;3.08;2.50;;;;;;;;;;5077007;28;20185;-47
2021/09/16 03:13:06;;;;;;;3.58;3.13;;;;;;;;;;5077668;28;20174;-47
2021/09/16 03:15:32;;;;;;;4.90;2.70;;;;;;;;;;5096621;28;20181;-47
2021/09/16 03:17:58;;;;;;;3.22;2.63;;;;;;;;;;5093122;28;20193;-47
2021/09/16 03:20:24;;;;;;;3.20;2.90;;;;;;;;;;5095949;28;20189;-46
2021/09/16 03:22:50;;;;;;;3.80;2.72;;;;;;;;;;5095074;28;20197;-47
2021/09/16 03:25:16;;;;;;;3.30;2.53;;;;;;;;;;5096283;28;20175;-47
2021/09/16 03:27:43;;;;;;;2.90;2.63;;;;;;;;;;5085083;28;20201;-47
2021/09/16 03:30:12;;;;;;;3.95;3.15;;;;;;;;;;5078302;28;20465;-47
2021/09/16 03:32:38;;;;;;;2.40;2.20;;;;;;;;;;5096314;28;20174;-47
2021/09/16 03:35:04;;;;;;;4.07;2.20;;;;;;;;;;5095413;28;20448;-47
2021/09/16 03:37:30;;;;;;;2.83;2.60;;;;;;;;;;5097857;28;20191;-47
2021/09/16 03:39:56;;;;;;;2.92;2.72;;;;;;;;;;5104941;28;20185;-47
2021/09/16 03:42:22;;;;;;;2.28;2.08;;;;;;;;;;5096288;28;20189;-47
2021/09/16 03:44:48;;;;;;;2.90;2.60;;;;;;;;;;5096190;28;20209;-47
2021/09/16 03:47:15;;;;;;;2.65;2.42;;;;;;;;;;5094956;28;20499;-47
2021/09/16 03:49:41;;;;;;;3.80;2.40;;;;;;;;;;5096016;28;20176;-47
2021/09/16 03:52:07;;;;;;;3.28;2.67;;;;;;;;;;5096078;28;20206;-47
2021/09/16 03:54:34;;;;;;;2.47;2.28;;;;;;;;;;5094168;28;20173;-47
2021/09/16 03:57:00;;;;;;;2.88;2.58;;;;;;;;;;5091469;28;20557;-47
2021/09/16 03:59:26;;;;;;;3.50;3.20;;;;;;;;;;5092978;28;20178;-47
2021/09/16 04:01:52;;;;;;;3.65;3.00;;;;;;;;;;5095843;28;20213;-47
2021/09/16 04:04:18;;;;;;;3.72;2.85;;;;;;;;;;5095912;28;20204;-47
2021/09/16 04:06:44;;;;;;;3.05;2.72;;;;;;;;;;5077737;28;20247;-47
2021/09/16 04:09:10;;;;;;;4.03;2.70;;;;;;;;;;5095301;28;20186;-47
2021/09/16 04:11:36;;;;;;;3.00;2.50;;;;;;;;;;5095122;28;20521;-47
2021/09/16 04:14:02;;;;;;;4.20;2.58;;;;;;;;;;5095694;28;20181;-47
2021/09/16 04:16:28;;;;;;;4.32;2.30;;;;;;;;;;5095717;28;20264;-47
2021/09/16 04:18:54;;;;;;;3.17;2.75;;;;;;;;;;5075108;28;20489;-47
2021/09/16 04:21:20;;;;;;;3.35;2.58;;;;;;;;;;5091702;28;20197;-47
2021/09/16 04:23:46;;;;;;;2.63;2.40;;;;;;;;;;5095253;28;20208;-47
2021/09/16 04:26:14;;;;;;;4.68;2.67;;;;;;;;;;5095867;28;20165;-47
2021/09/16 04:28:40;;;;;;;4.93;2.90;;;;;;;;;;5085974;28;20174;-47
2021/09/16 04:31:06;;;;;;;6.32;3.08;;;;;;;;;;5095172;28;20247;-47
2021/09/16 04:33:32;;;;;;;9.30;3.65;;;;;;;;;;5094841;28;20766;-47
2021/09/16 04:35:58;;;;;;;6.60;2.60;;;;;;;;;;5081772;28;20457;-47
2021/09/16 04:38:24;;;;;;;3.50;2.35;;;;;;;;;;5097886;28;20564;-47
2021/09/16 04:40:50;;;;;;;5.15;3.08;;;;;;;;;;5111305;28;20181;-47
2021/09/16 04:43:16;;;;;;;6.03;3.83;;;;;;;;;;5096624;28;20212;-47
2021/09/16 04:45:42;;;;;;;6.45;3.35;;;;;;;;;;5095222;28;20166;-47
2021/09/16 04:48:08;;;;;;;4.10;2.97;;;;;;;;;;5093817;28;20174;-47
2021/09/16 04:50:34;;;;;;;5.97;3.50;;;;;;;;;;5094963;28;20188;-47
2021/09/16 04:53:00;;;;;;;5.80;3.22;;;;;;;;;;5095366;28;20257;-47
2021/09/16 04:55:26;;;;;;;3.85;3.47;;;;;;;;;;5084676;28;20557;-47
2021/09/16 04:57:52;;;;;;;3.13;2.85;;;;;;;;;;5087521;28;20192;-47
2021/09/16 05:00:18;;;;;;;5.45;3.97;;;;;;;;;;5089824;28;20190;-47
2021/09/16 05:02:44;;;;;;;4.63;3.40;;;;;;;;;;5091677;28;20819;-47
2021/09/16 05:05:10;;;;;;;4.82;4.30;;;;;;;;;;5079709;28;20179;-47
2021/09/16 05:07:36;;;;;;;5.65;5.07;;;;;;;;;;5085897;28;20174;-48
2021/09/16 05:10:03;;;;;;;8.05;5.82;;;;;;;;;;5079070;28;20553;-47
2021/09/16 05:12:29;;;;;;;9.82;6.38;;;;;;;;;;5094297;28;20177;-47
2021/09/16 05:14:55;;;;;;;3.97;3.58;;;;;;;;;;5085254;28;20524;-47
2021/09/16 05:17:21;;;;;;;5.82;3.90;;;;;;;;;;5089846;28;20173;-48
2021/09/16 05:19:47;;;;;;;6.35;4.90;;;;;;;;;;5095026;28;20241;-47
2021/09/16 05:22:13;;;;;;;9.25;7.53;;;;;;;;;;5095163;28;20174;-47
2021/09/16 05:24:39;;;;;;;6.60;4.25;;;;;;;;;;5092221;28;20233;-47
2021/09/16 05:27:05;;;;;;;7.72;6.93;;;;;;;;;;5076896;28;20498;-47
2021/09/16 05:29:31;;;;;;;6.88;5.78;;;;;;;;;;5093626;28;20244;-47
2021/09/16 05:31:57;;;;;;;6.28;5.28;;;;;;;;;;5074387;28;20262;-47
2021/09/16 05:34:23;;;;;;;6.72;5.90;;;;;;;;;;5074592;28;20182;-47
2021/09/16 05:36:49;;;;;;;6.88;5.75;;;;;;;;;;5094114;28;20185;-47
2021/09/16 05:39:15;;;;;;;10.90;9.52;;;;;;;;;;5101892;28;20224;-47
2021/09/16 05:41:41;;;;;;;7.90;6.20;;;;;;;;;;5115197;28;20247;-47
2021/09/16 05:44:07;;;;;;;9.48;8.40;;;;;;;;;;5114352;28;20205;-47
2021/09/16 05:46:33;;;;;;;7.70;6.90;;;;;;;;;;5096385;28;20189;-47
2021/09/16 05:48:59;;;;;;;6.13;5.53;;;;;;;;;;5075294;28;20196;-47
2021/09/16 05:51:25;;;;;;;9.55;7.38;;;;;;;;;;5090726;28;20445;-47
2021/09/16 05:53:51;;;;;;;10.85;9.20;;;;;;;;;;5094344;28;20180;-47
2021/09/16 05:56:17;;;;;;;7.65;6.85;;;;;;;;;;5094286;28;20181;-47
2021/09/16 05:58:43;;;;;;;6.93;5.40;;;;;;;;;;5077634;28;20183;-47
2021/09/16 06:01:09;;;;;;;9.00;6.68;;;;;;;;;;5074201;28;20185;-47
2021/09/16 06:03:35;;;;;;;12.68;9.77;;;;;;;;;;5075430;28;20239;-47
2021/09/16 06:06:01;;;;;;;10.43;8.75;;;;;;;;;;5093996;28;20178;-47
2021/09/16 06:08:27;;;;;;;12.27;9.63;;;;;;;;;;5080342;28;20545;-47
2021/09/16 06:10:53;;;;;;;8.80;6.88;;;;;;;;;;5074311;28;20206;-47
2021/09/16 06:13:19;;;;;;;11.48;10.00;;;;;;;;;;5076747;28;20174;-47
2021/09/16 06:15:45;;;;;;;8.60;7.70;;;;;;;;;;5093616;28;20194;-47
2021/09/16 06:18:11;;;;;;;7.68;5.70;;;;;;;;;;5093110;28;20178;-48
2021/09/16 06:20:37;;;;;;;6.47;5.88;;;;;;;;;;5083648;28;20183;-47
2021/09/16 06:23:03;;;;;;;6.57;5.32;;;;;;;;;;5073847;28;20558;-47
2021/09/16 06:25:29;;;;;;;9.68;8.07;;;;;;;;;;5074173;28;20178;-47
2021/09/16 06:27:56;;;;;;;6.05;5.43;;;;;;;;;;5081428;28;20177;-47
2021/09/16 06:30:22;;;;;;;5.97;4.90;;;;;;;;;;5093980;28;20198;-47
2021/09/16 06:32:48;;;;;;;5.18;4.68;;;;;;;;;;5094440;28;20198;-47
2021/09/16 06:35:14;;;;;;;8.13;6.72;;;;;;;;;;5093475;28;20505;-47
2021/09/16 06:37:40;;;;;;;10.27;7.95;;;;;;;;;;5099343;28;20276;-47
2021/09/16 06:40:07;;;;;;;9.02;7.05;;;;;;;;;;5097831;28;20193;-47
2021/09/16 06:42:33;;;;;;;9.57;8.18;;;;;;;;;;5094012;28;20213;-47
2021/09/16 06:44:59;;;;;;;7.20;6.47;;;;;;;;;;5091998;28;20182;-47
2021/09/16 06:47:25;;;;;;;9.88;8.48;;;;;;;;;;5091479;28;20182;-47
2021/09/16 06:49:51;;;;;;;8.88;7.68;;;;;;;;;;5089986;28;20192;-47
2021/09/16 06:52:20;;;;;;;10.00;7.88;;;;;;;;;;5073957;28;20163;-47
2021/09/16 06:54:46;;;;;;;7.55;6.75;;;;;;;;;;5083933;28;20194;-47
2021/09/16 06:57:12;;;;;;;14.95;10.35;;;;;;;;;;5095564;28;20181;-47
2021/09/16 06:59:38;;;;;;;7.00;5.80;;;;;;;;;;5096917;28;20194;-47
2021/09/16 07:02:04;;;;;;;6.35;5.40;;;;;;;;;;5097531;28;20213;-47
2021/09/16 07:04:30;;;;;;;6.93;5.55;;;;;;;;;;5086638;28;20213;-47
2021/09/16 07:06:58;;;;;;;9.45;6.93;;;;;;;;;;5076812;28;20166;-47
2021/09/16 07:09:24;;;;;;;13.80;9.73;;;;;;;;;;5096589;28;20185;-47
2021/09/16 07:11:50;;;;;;;8.13;7.13;;;;;;;;;;5097345;28;20170;-47
2021/09/16 07:14:16;;;;;;;9.60;8.48;;;;;;;;;;5086551;28;20224;-47
2021/09/16 07:16:42;;;;;;;12.27;8.07;;;;;;;;;;5091738;28;20189;-47
2021/09/16 07:19:08;;;;;;;7.03;6.32;;;;;;;;;;5091470;28;20189;-47
2021/09/16 07:21:34;;;;;;;5.85;5.35;;;;;;;;;;5077320;28;20566;-47
2021/09/16 07:24:00;;;;;;;7.32;6.28;;;;;;;;;;5076459;28;20218;-47
2021/09/16 07:26:26;;;;;;;6.22;5.63;;;;;;;;;;5076670;28;20173;-47
2021/09/16 07:28:52;;;;;;;7.57;5.15;;;;;;;;;;5090887;28;20259;-47
2021/09/16 07:31:19;;;;;;;9.82;8.05;;;;;;;;;;5096767;28;20229;-47
2021/09/16 07:33:45;;;;;;;10.10;7.97;;;;;;;;;;5097136;28;20166;-47
2021/09/16 07:36:11;;;;;;;8.98;6.20;;;;;;;;;;5096490;28;20189;-47
2021/09/16 07:38:37;;;;;;;7.15;5.80;;;;;;;;;;5101951;28;20197;-47
2021/09/16 07:41:03;;;;;;;6.47;5.32;;;;;;;;;;5085091;28;20656;-47
2021/09/16 07:43:29;;;;;;;7.63;5.63;;;;;;;;;;5076180;28;20198;-46
2021/09/16 07:45:55;;;;;;;7.05;6.30;;;;;;;;;;5082198;28;20174;-47
2021/09/16 07:48:21;;;;;;;5.40;4.85;;;;;;;;;;5085726;28;20244;-47
2021/09/16 07:50:47;;;;;;;9.93;6.82;;;;;;;;;;5076635;28;20235;-47
2021/09/16 07:53:13;;;;;;;9.93;7.55;;;;;;;;;;5076183;28;20177;-47
2021/09/16 07:55:39;;;;;;;7.60;6.47;;;;;;;;;;5086106;28;20224;-47
2021/09/16 07:58:06;;;;;;;6.68;5.80;;;;;;;;;;5087771;28;20209;-47
2021/09/16 08:00:32;;;;;;;6.90;5.22;;;;;;;;;;5085634;28;20493;-47
2021/09/16 08:02:58;;;;;;;6.47;3.90;;;;;;;;;;5096029;28;20288;-47
2021/09/16 08:05:24;;;;;;;5.05;3.92;;;;;;;;;;5086769;28;20249;-47
2021/09/16 08:07:50;;;;;;;6.00;4.93;;;;;;;;;;5080345;28;20698;-47
2021/09/16 08:10:16;;;;;;;11.88;8.75;;;;;;;;;;5095984;28;20180;-47
2021/09/16 08:12:42;;;;;;;7.90;6.35;;;;;;;;;;5096379;28;20615;-47
2021/09/16 08:15:09;;;;;;;7.70;5.18;;;;;;;;;;5083788;28;20204;-47
2021/09/16 08:17:35;;;;;;;6.78;5.47;;;;;;;;;;5092381;28;20205;-47
2021/09/16 08:20:01;;;;;;;4.35;3.95;;;;;;;;;;5083391;28;20181;-47
2021/09/16 08:22:27;;;;;;;5.60;4.60;;;;;;;;;;5075590;28;20166;-47
2021/09/16 08:24:53;;;;;;;6.18;5.32;;;;;;;;;;5075356;28;20174;-47
2021/09/16 08:27:19;;;;;;;5.25;4.75;;;;;;;;;;5075172;28;20175;-47
2021/09/16 08:29:45;;;;;;;5.30;4.80;;;;;;;;;;5095359;28;20253;-47
2021/09/16 08:32:11;;;;;;;5.78;5.25;;;;;;;;;;5095872;28;20189;-47
2021/09/16 08:34:37;;;;;;;6.55;5.88;;;;;;;;;;5094942;28;20210;-47
2021/09/16 08:37:03;;;;;;;5.90;5.30;;;;;;;;;;5095728;28;20190;-47
2021/09/16 08:39:29;;;;;;;5.07;4.57;;;;;;;;;;5097659;28;20174;-47
2021/09/16 08:41:55;;;;;;;5.30;4.75;;;;;;;;;;5075508;28;20171;-47
2021/09/16 08:44:21;;;;;;;5.82;5.22;;;;;;;;;;5075931;28;20213;-47
2021/09/16 08:46:47;;;;;;;6.15;4.78;;;;;;;;;;5075294;28;20583;-47
2021/09/16 08:49:13;;;;;;;3.38;3.08;;;;;;;;;;5086122;28;20166;-47
2021/09/16 08:51:40;;;;;;;6.15;5.50;;;;;;;;;;5087918;28;20177;-47
2021/09/16 08:54:08;;;;;;;4.10;3.38;;;;;;;;;;5095132;28;20170;-47
2021/09/16 08:56:34;;;;;;;3.38;2.80;;;;;;;;;;5076625;28;20196;-47
2021/09/16 08:59:03;;;;;;;6.57;5.25;;;;;;;;;;5087975;28;20213;-47
2021/09/16 09:01:29;;;;;;;6.00;4.85;;;;;;;;;;5095360;28;20585;-47
2021/09/16 09:03:54;;;;;;;5.38;4.80;;;;;;;;;;5094153;28;20200;-47
2021/09/16 09:06:24;;;;;;;6.00;5.40;;;;;;;;;;5078329;28;20175;-47
2021/09/16 09:09:05;;;;;;;6.13;4.60;;;;;;;;;;5091170;28;20242;-47
2021/09/16 09:11:31;;;;;;;4.57;4.00;;;;;;;;;;5094479;28;20230;-47
2021/09/16 09:13:57;;;;;;;4.60;3.58;;;;;;;;;;5087018;28;20175;-47
2021/09/16 09:16:33;;;;;;;5.90;3.40;;;;;;;;;;5089482;28;20174;-47
2021/09/16 09:18:59;;;;;;;3.58;2.72;;;;;;;;;;5084518;28;20187;-47
2021/09/16 09:21:36;;;;;;;3.63;3.25;;;;;;;;;;5094957;28;20178;-47
2021/09/16 09:24:02;;;;;;;2.95;2.65;;;;;;;;;;5093977;28;20197;-47
2021/09/16 09:26:32;;;;;;;3.10;2.83;;;;;;;;;;5094436;28;20173;-47
2021/09/16 09:29:07;;;;;;;3.83;2.70;;;;;;;;;;5081317;28;20239;-47
2021/09/16 09:31:34;;;;;;;3.60;2.83;;;;;;;;;;5074220;28;20469;-47
2021/09/16 09:34:00;;;;;;;2.90;2.60;;;;;;;;;;5074554;28;20228;-47
2021/09/16 09:36:26;;;;;;;3.00;2.45;;;;;;;;;;5074361;28;20178;-46
2021/09/16 09:39:03;;;;;;;2.80;2.58;;;;;;;;;;5098728;28;20817;-47
2021/09/16 09:41:31;;;;;;;4.82;2.67;;;;;;;;;;5092171;28;20185;-47
2021/09/16 09:44:02;;;;;;;3.55;3.15;;;;;;;;;;5094033;28;20209;-47
2021/09/16 09:46:28;;;;;;;3.05;2.80;;;;;;;;;;5093004;28;20201;-47
2021/09/16 09:49:01;;;;;;;2.40;2.20;;;;;;;;;;5080952;28;20220;-47
2021/09/16 09:51:41;;;;;;;2.40;2.20;;;;;;;;;;5074366;28;20169;-47
2021/09/16 09:54:15;;;;;;;3.33;2.60;;;;;;;;;;5074257;28;20216;-47
2021/09/16 09:56:41;;;;;;;4.30;3.50;;;;;;;;;;5092930;28;20309;-47
2021/09/16 09:59:07;;;;;;;4.47;3.17;;;;;;;;;;5091874;28;20189;-47
2021/09/16 10:01:37;;;;;;;3.05;2.72;;;;;;;;;;5093876;28;20273;-47
2021/09/16 10:04:21;;;;;;;3.05;2.10;;;;;;;;;;5094274;28;20726;-46
2021/09/16 10:06:47;;;;;;;3.05;2.53;;;;;;;;;;5094256;28;20189;-46
2021/09/16 10:09:14;;;;;;;2.72;2.22;;;;;;;;;;5079299;28;20467;-47
2021/09/16 10:11:42;;;;;;;3.55;2.67;;;;;;;;;;5074216;28;20243;-46
2021/09/16 10:14:08;;;;;;;4.35;2.33;;;;;;;;;;5083756;28;20182;-47
2021/09/16 10:16:34;;;;;;;5.63;3.03;;;;;;;;;;5094338;28;20166;-46
2021/09/16 10:19:00;;;;;;;3.60;2.45;;;;;;;;;;5092798;28;20170;-46
2021/09/16 10:21:26;;;;;;;2.67;2.15;;;;;;;;;;5076798;28;20179;-47
2021/09/16 10:23:53;;;;;;;3.13;1.92;;;;;;;;;;5073791;28;20577;-46
2021/09/16 10:26:31;;;;;;;2.50;1.73;;;;;;;;;;5073966;28;20257;-48
2021/09/16 10:28:57;;;;;;;2.25;2.03;;;;;;;;;;5084202;28;20162;-47
2021/09/16 10:31:25;;;;;;;2.58;1.85;;;;;;;;;;5096752;28;20320;-47
2021/09/16 10:33:51;;;;;;;4.43;2.30;;;;;;;;;;5097845;28;20168;-47
2021/09/16 10:36:17;;;;;;;2.45;2.00;;;;;;;;;;5097758;28;20197;-47
2021/09/16 10:38:47;;;;;;;2.30;2.03;;;;;;;;;;5107934;28;20205;-47
2021/09/16 10:41:18;;;;;;;3.42;2.30;;;;;;;;;;5099497;28;20288;-48
2021/09/16 10:44:04;;;;;;;2.70;2.15;;;;;;;;;;5097622;28;20233;-48
2021/09/16 10:46:37;;;;;;;2.83;2.55;;;;;;;;;;5082833;28;20359;-47
2021/09/16 10:49:22;;;;;;;4.75;2.80;;;;;;;;;;5083505;28;20181;-47
2021/09/16 10:51:49;;;;;;;4.00;2.45;;;;;;;;;;5097724;28;20630;-47
2021/09/16 10:54:34;;;;;;;3.63;2.40;;;;;;;;;;5097885;28;20214;-47
2021/09/16 10:57:00;;;;;;;3.92;2.83;;;;;;;;;;5076747;28;20426;-47
2021/09/16 10:59:45;;;;;;;2.80;2.50;;;;;;;;;;5077341;28;20629;-47
2021/09/16 11:02:11;;;;;;;2.83;2.53;;;;;;;;;;5097329;28;20170;-47
2021/09/16 11:04:58;;;;;;;2.92;2.72;;;;;;;;;;5096580;28;20213;-46
2021/09/16 11:07:37;;;;;;;3.47;3.03;;;;;;;;;;5096483;28;20248;-47
2021/09/16 11:12:55;;;;;;;5.10;3.72;;;;;;;;;;5077089;28;20171;-47
2021/09/16 11:15:30;;;;;;;4.28;3.33;;;;;;;;;;5096023;28;20177;-47
2021/09/16 11:18:03;;;;;;;3.35;3.00;;;;;;;;;;5083093;28;20186;-47
2021/09/16 11:20:29;;;;;;;3.47;2.33;;;;;;;;;;5096748;28;20188;-47
2021/09/16 11:22:55;;;;;;;2.13;1.95;;;;;;;;;;5097109;28;20292;-47
2021/09/16 11:25:21;;;;;;;2.25;2.00;;;;;;;;;;5096737;28;20253;-47
2021/09/16 11:27:47;;;;;;;4.57;2.97;;;;;;;;;;5095718;28;20448;-47
2021/09/16 11:30:14;;;;;;;3.85;3.05;;;;;;;;;;5076105;28;20202;-47
2021/09/16 11:32:42;;;;;;;3.00;2.63;;;;;;;;;;5076979;28;20201;-47
2021/09/16 11:35:12;;;;;;;2.85;2.00;;;;;;;;;;5082583;28;20170;-47
2021/09/16 11:37:39;;;;;;;2.42;2.22;;;;;;;;;;5100679;28;20181;-47
2021/09/16 11:40:11;;;;;;;2.22;1.73;;;;;;;;;;5097819;28;20519;-47
2021/09/16 11:42:38;;;;;;;2.42;2.22;;;;;;;;;;5075701;28;20491;-47
2021/09/16 11:45:07;;;;;;;2.22;2.00;;;;;;;;;;5076377;28;20197;-47
2021/09/16 11:47:38;;;;;;;3.70;3.40;;;;;;;;;;5075763;28;20591;-47
2021/09/16 11:50:05;;;;;;;2.17;1.98;;;;;;;;;;5094111;28;20557;-47
2021/09/16 11:52:31;;;;;;;2.92;2.15;;;;;;;;;;5095736;28;20178;-47
2021/09/16 11:55:07;;;;;;;3.03;2.67;;;;;;;;;;5096536;28;20177;-47
2021/09/16 11:57:52;;;;;;;2.80;2.60;;;;;;;;;;5096121;28;20877;-47
2021/09/16 12:00:41;;;;;;;2.08;1.90;;;;;;;;;;5083602;28;20182;-47
2021/09/16 12:03:08;;;;;;;2.30;2.10;;;;;;;;;;5088410;28;20206;-47
2021/09/16 12:05:34;;;;;;;3.13;2.50;;;;;;;;;;5095417;28;20256;-47
2021/09/16 12:08:00;;;;;;;2.45;2.25;;;;;;;;;;5095144;28;20248;-47
2021/09/16 12:10:35;;;;;;;2.10;1.95;;;;;;;;;;5095714;28;20185;-47
2021/09/16 12:13:01;;;;;;;2.63;2.25;;;;;;;;;;5096396;28;20185;-47
2021/09/16 12:15:27;;;;;;;2.95;2.75;;;;;;;;;;5077142;28;20182;-47
2021/09/16 12:17:53;;;;;;;3.17;2.85;;;;;;;;;;5075196;28;20174;-47
2021/09/16 12:20:19;;;;;;;2.45;2.25;;;;;;;;;;5095372;28;20174;-47
2021/09/16 12:22:45;;;;;;;3.17;2.88;;;;;;;;;;5095726;28;20184;-47
2021/09/16 12:25:11;;;;;;;3.05;2.75;;;;;;;;;;5089003;28;20198;-47
2021/09/16 12:27:37;;;;;;;4.03;3.70;;;;;;;;;;5075296;28;20438;-47
2021/09/16 12:30:18;;;;;;;5.38;3.75;;;;;;;;;;5092510;28;20208;-47
2021/09/16 12:32:44;;;;;;;3.58;3.13;;;;;;;;;;5095762;28;20247;-47
2021/09/16 12:35:17;;;;;;;5.00;3.63;;;;;;;;;;5095277;28;20186;-47
2021/09/16 12:37:43;;;;;;;5.32;4.55;;;;;;;;;;5099321;28;20444;-47
2021/09/16 12:40:24;;;;;;;5.40;3.78;;;;;;;;;;5098619;28;20290;-47
2021/09/16 12:42:50;;;;;;;7.22;4.38;;;;;;;;;;5093292;28;20173;-47
2021/09/16 12:45:16;;;;;;;4.20;3.80;;;;;;;;;;5074931;28;20269;-47
2021/09/16 12:47:53;;;;;;;4.65;3.55;;;;;;;;;;5074662;28;20173;-47
2021/09/16 12:50:22;;;;;;;6.10;4.05;;;;;;;;;;5094031;28;20222;-47
2021/09/16 12:52:48;;;;;;;4.53;3.30;;;;;;;;;;5093144;28;20257;-47
2021/09/16 12:55:14;;;;;;;3.88;2.50;;;;;;;;;;5092151;28;20249;-47
2021/09/16 12:57:44;;;;;;;4.15;3.10;;;;;;;;;;5094567;28;20192;-47
2021/09/16 13:00:14;;;;;;;4.50;3.33;;;;;;;;;;5087911;28;20437;-47
2021/09/16 13:02:43;;;;;;;5.30;4.10;;;;;;;;;;5075060;28;20179;-47
2021/09/16 13:05:16;;;;;;;5.10;3.80;;;;;;;;;;5081104;28;20166;-47
2021/09/16 13:07:43;;;;;;;7.05;4.28;;;;;;;;;;5094570;28;20198;-47
2021/09/16 13:10:25;;;;;;;5.07;4.40;;;;;;;;;;5092494;28;20169;-47
2021/09/16 13:13:02;;;;;;;6.10;3.60;;;;;;;;;;5074807;28;20825;-47
2021/09/16 13:15:28;;;;;;;4.22;3.78;;;;;;;;;;5093905;28;20424;-47
2021/09/16 13:17:54;;;;;;;3.35;2.97;;;;;;;;;;5093422;28;20181;-49
2021/09/16 13:20:23;;;;;;;6.10;2.70;;;;;;;;;;5093628;28;20181;-47
2021/09/16 13:22:49;;;;;;;2.80;2.60;;;;;;;;;;5094759;28;20545;-47
2021/09/16 13:25:15;;;;;;;4.55;2.95;;;;;;;;;;5094586;28;20184;-47
2021/09/16 13:27:41;;;;;;;4.82;3.30;;;;;;;;;;5093181;28;20252;-47
2021/09/16 13:30:08;;;;;;;4.28;3.05;;;;;;;;;;5077955;28;20201;-47
2021/09/16 13:32:34;;;;;;;3.90;3.50;;;;;;;;;;5087860;28;20737;-47
2021/09/16 13:35:01;;;;;;;3.20;2.50;;;;;;;;;;5092591;28;20322;-47
2021/09/16 13:37:27;;;;;;;4.50;3.00;;;;;;;;;;5087584;28;20177;-47
2021/09/16 13:39:53;;;;;;;4.40;2.58;;;;;;;;;;5101214;28;20204;-47
2021/09/16 13:42:20;;;;;;;6.15;2.97;;;;;;;;;;5081990;28;20170;-47
2021/09/16 13:44:46;;;;;;;6.75;3.10;;;;;;;;;;5083521;28;20210;-47
2021/09/16 13:47:12;;;;;;;5.53;2.90;;;;;;;;;;5073782;28;20163;-47
2021/09/16 13:49:38;;;;;;;4.10;2.50;;;;;;;;;;5084966;28;20444;-47
2021/09/16 13:52:06;;;;;;;6.43;2.58;;;;;;;;;;5094249;28;20170;-47
2021/09/16 13:54:31;;;;;;;4.55;2.95;;;;;;;;;;5093726;28;20553;-47
2021/09/16 13:56:57;;;;;;;3.65;3.13;;;;;;;;;;5094048;28;20185;-47
2021/09/16 13:59:24;;;;;;;6.22;2.55;;;;;;;;;;5093762;28;20322;-47
2021/09/16 14:01:50;;;;;;;3.95;2.55;;;;;;;;;;5094007;28;20186;-47
2021/09/16 14:04:16;;;;;;;4.00;2.40;;;;;;;;;;5095404;28;20456;-47
2021/09/16 14:06:42;;;;;;;3.60;3.30;;;;;;;;;;5078521;28;20194;-47
2021/09/16 14:09:08;;;;;;;3.30;2.78;;;;;;;;;;5084404;28;20181;-48
2021/09/16 14:11:34;;;;;;;5.03;3.00;;;;;;;;;;5098008;28;20161;-46
2021/09/16 14:14:21;;;;;;;8.20;3.38;;;;;;;;;;5071684;28;21043;-50
2021/09/16 14:19:05;;;;;;;6.45;4.03;;;;;;;;;;5111033;27;20553;-50
2021/09/16 14:21:35;;;;;;;6.28;4.10;;;;;;;;;;5111687;28;20181;-49
2021/09/16 14:24:03;;;;;;;6.07;3.42;;;;;;;;;;5112294;28;20172;-49
2021/09/16 14:26:29;;;;;;;4.20;2.88;;;;;;;;;;5111359;28;20204;-49
2021/09/16 14:28:55;;;;;;;4.68;3.92;;;;;;;;;;5111245;28;20266;-49
2021/09/16 14:31:21;;;;;;;6.20;3.00;;;;;;;;;;5105924;28;20234;-49
2021/09/16 14:33:47;;;;;;;6.35;4.40;;;;;;;;;;5099506;28;20185;-49
2021/09/16 14:36:13;;;;;;;8.20;4.78;;;;;;;;;;5104068;28;20235;-49
2021/09/16 14:38:39;;;;;;;5.18;3.88;;;;;;;;;;5110521;28;20251;-51
2021/09/16 14:41:05;;;;;;;6.47;3.80;;;;;;;;;;5111434;28;20461;-51
2021/09/16 14:43:31;;;;;;;5.43;3.55;;;;;;;;;;5111647;28;20173;-50
2021/09/16 14:45:57;;;;;;;3.50;3.20;;;;;;;;;;5111319;28;20203;-50
2021/09/16 14:48:23;;;;;;;4.75;3.97;;;;;;;;;;5110927;28;20173;-50